Wolfsberg, Austria
Current Conditions -  °F | °C
As of 6:50 AM on Sunday 21 Dec 2014 (Local Time) from LOXZ Reporting Station
Broken Clouds Broken Clouds  
Wind Chill: 25°   Ceiling: 3000
Heat Index: 36°   Visibility: 6mi
Dew Point: 30°   Wind: 18mph
Humidity: 81%   Direction: 270°W
Pressure: 30.24"   Gusts: NA
Location:  46.85°N, 14.85°E
Report Text: LOXZ 210450Z 27016KT 10KM FEW020ST BKN030SC 02/M01 Q1024 RMKBKN
Loading
Personal Weather Stations






























Interactive Weather Map New forecast layout! Learn more

10-Day Weather Forecast

Advertisements
Track Severe Weather on mobile